sensor_id;sensor_type;location;lat;lon;timestamp;pressure;altitude;pressure_sealevel;temperature;humidity
60583;BME280;46415;47.536;19.066;2024-03-23T00:56:20;-18430.63;;;7.39;100.00
60583;BME280;46415;47.536;19.066;2024-03-23T00:59:22;-18430.75;;;7.40;100.00
60583;BME280;46415;47.536;19.066;2024-03-23T01:02:28;-18429.13;;;7.34;100.00
60583;BME280;46415;47.536;19.066;2024-03-23T01:05:30;-18427.47;;;7.28;100.00
60583;BME280;46415;47.536;19.066;2024-03-23T01:08:32;-18426.66;;;7.25;100.00
60583;BME280;46415;47.536;19.066;2024-03-23T01:11:34;-18425.69;;;7.21;100.00
60583;BME280;46415;47.536;19.066;2024-03-23T01:14:36;-18425.00;;;7.19;100.00
60583;BME280;46415;47.536;19.066;2024-03-23T01:17:38;-18424.03;;;7.15;100.00
60583;BME280;46415;47.536;19.066;2024-03-23T01:20:43;-18422.94;;;7.11;100.00
60583;BME280;46415;47.536;19.066;2024-03-23T01:23:45;-18422.13;;;7.08;100.00
60583;BME280;46415;47.536;19.066;2024-03-23T01:26:47;-18421.97;;;7.08;100.00
60583;BME280;46415;47.536;19.066;2024-03-23T01:29:49;-18421.00;;;7.04;100.00
60583;BME280;46415;47.536;19.066;2024-03-23T01:32:51;-18420.59;;;7.03;100.00
60583;BME280;46415;47.536;19.066;2024-03-23T01:35:53;-18419.78;;;7.00;100.00
60583;BME280;46415;47.536;19.066;2024-03-23T01:38:55;-18418.00;;;6.93;100.00
60583;BME280;46415;47.536;19.066;2024-03-23T01:41:57;-18417.16;;;6.90;100.00
60583;BME280;46415;47.536;19.066;2024-03-23T01:44:59;-18417.03;;;6.89;100.00
60583;BME280;46415;47.536;19.066;2024-03-23T01:48:01;-18415.38;;;6.83;100.00
60583;BME280;46415;47.536;19.066;2024-03-23T01:51:04;-18414.41;;;6.80;100.00
60583;BME280;46415;47.536;19.066;2024-03-23T01:54:07;-18414.41;;;6.80;100.00
60583;BME280;46415;47.536;19.066;2024-03-23T01:57:09;-18413.88;;;6.78;100.00
60583;BME280;46415;47.536;19.066;2024-03-23T02:00:12;-18414.00;;;6.78;100.00
60583;BME280;46415;47.536;19.066;2024-03-23T02:03:33;-18413.59;;;6.77;100.00
60583;BME280;46415;47.536;19.066;2024-03-23T02:06:35;-18412.91;;;6.74;100.00
60583;BME280;46415;47.536;19.066;2024-03-23T02:09:37;-18412.91;;;6.74;100.00
60583;BME280;46415;47.536;19.066;2024-03-23T02:12:39;-18412.91;;;6.74;100.00
60583;BME280;46415;47.536;19.066;2024-03-23T02:15:41;-18412.09;;;6.71;100.00
60583;BME280;46415;47.536;19.066;2024-03-23T02:18:43;-18412.50;;;6.73;100.00
60583;BME280;46415;47.536;19.066;2024-03-23T02:21:45;-18411.25;;;6.68;100.00
60583;BME280;46415;47.536;19.066;2024-03-23T02:24:49;-18410.72;;;6.66;100.00
60583;BME280;46415;47.536;19.066;2024-03-23T02:27:50;-18409.22;;;6.61;100.00
60583;BME280;46415;47.536;19.066;2024-03-23T02:30:53;-18408.53;;;6.58;100.00
60583;BME280;46415;47.536;19.066;2024-03-23T02:33:54;-18408.94;;;6.60;100.00
60583;BME280;46415;47.536;19.066;2024-03-23T02:36:57;-18409.22;;;6.61;100.00
60583;BME280;46415;47.536;19.066;2024-03-23T02:39:59;-18409.88;;;6.63;100.00
60583;BME280;46415;47.536;19.066;2024-03-23T02:43:03;-18409.34;;;6.61;100.00
60583;BME280;46415;47.536;19.066;2024-03-23T02:46:05;-18408.66;;;6.59;100.00
60583;BME280;46415;47.536;19.066;2024-03-23T02:49:07;-18408.25;;;6.57;100.00
60583;BME280;46415;47.536;19.066;2024-03-23T02:52:09;-18407.97;;;6.56;100.00
60583;BME280;46415;47.536;19.066;2024-03-23T02:55:11;-18407.28;;;6.53;100.00
60583;BME280;46415;47.536;19.066;2024-03-23T02:58:14;-18406.88;;;6.52;100.00
60583;BME280;46415;47.536;19.066;2024-03-23T03:01:16;-18406.88;;;6.52;100.00
60583;BME280;46415;47.536;19.066;2024-03-23T03:04:18;-18408.09;;;6.56;100.00
60583;BME280;46415;47.536;19.066;2024-03-23T03:07:20;-18408.53;;;6.58;100.00
60583;BME280;46415;47.536;19.066;2024-03-23T03:10:22;-18409.34;;;6.61;100.00
60583;BME280;46415;47.536;19.066;2024-03-23T03:13:24;-18410.84;;;6.67;100.00
60583;BME280;46415;47.536;19.066;2024-03-23T03:16:26;-18410.03;;;6.64;100.00
60583;BME280;46415;47.536;19.066;2024-03-23T03:19:28;-18410.44;;;6.65;100.00
60583;BME280;46415;47.536;19.066;2024-03-23T03:22:30;-18410.16;;;6.64;100.00
60583;BME280;46415;47.536;19.066;2024-03-23T03:25:33;-18411.53;;;6.69;100.00
60583;BME280;46415;47.536;19.066;2024-03-23T03:28:35;-18414.28;;;6.79;100.00
60583;BME280;46415;47.536;19.066;2024-03-23T03:31:38;-18417.59;;;6.91;100.00
60583;BME280;46415;47.536;19.066;2024-03-23T03:34:40;-18420.06;;;7.01;100.00
60583;BME280;46415;47.536;19.066;2024-03-23T03:37:42;-18422.94;;;7.11;100.00
60583;BME280;46415;47.536;19.066;2024-03-23T03:40:44;-18428.00;;;7.30;100.00
60583;BME280;46415;47.536;19.066;2024-03-23T03:43:46;-18432.28;;;7.46;100.00
60583;BME280;46415;47.536;19.066;2024-03-23T03:46:48;-18435.44;;;7.57;100.00
60583;BME280;46415;47.536;19.066;2024-03-23T03:49:50;-18440.22;;;7.75;100.00
60583;BME280;46415;47.536;19.066;2024-03-23T03:52:52;-18446.13;;;7.97;100.00
60583;BME280;46415;47.536;19.066;2024-03-23T03:55:54;-18448.06;;;8.04;100.00
60583;BME280;46415;47.536;19.066;2024-03-23T03:58:56;-18449.16;;;8.08;100.00
60583;BME280;46415;47.536;19.066;2024-03-23T04:01:58;-18451.34;;;8.16;100.00
60583;BME280;46415;47.536;19.066;2024-03-23T04:05:00;-18452.16;;;8.19;100.00
60583;BME280;46415;47.536;19.066;2024-03-23T04:08:03;-18454.50;;;8.28;100.00
60583;BME280;46415;47.536;19.066;2024-03-23T04:11:06;-18456.56;;;8.35;100.00
60583;BME280;46415;47.536;19.066;2024-03-23T04:14:07;-18456.41;;;8.35;100.00
60583;BME280;46415;47.536;19.066;2024-03-23T04:17:09;-18458.06;;;8.41;100.00
60583;BME280;46415;47.536;19.066;2024-03-23T04:20:11;-18457.38;;;8.38;100.00
60583;BME280;46415;47.536;19.066;2024-03-23T04:23:15;-18458.47;;;8.42;100.00
60583;BME280;46415;47.536;19.066;2024-03-23T04:26:17;-18459.44;;;8.46;100.00
60583;BME280;46415;47.536;19.066;2024-03-23T04:29:19;-18460.81;;;8.51;100.00
60583;BME280;46415;47.536;19.066;2024-03-23T04:32:21;-18458.75;;;8.43;100.00
60583;BME280;46415;47.536;19.066;2024-03-23T04:35:24;-18457.78;;;8.40;100.00
60583;BME280;46415;47.536;19.066;2024-03-23T04:38:26;-18459.31;;;8.45;100.00
60583;BME280;46415;47.536;19.066;2024-03-23T04:41:29;-18459.72;;;8.47;100.00
60583;BME280;46415;47.536;19.066;2024-03-23T04:44:31;-18459.03;;;8.44;100.00
60583;BME280;46415;47.536;19.066;2024-03-23T04:47:33;-18458.34;;;8.42;100.00
60583;BME280;46415;47.536;19.066;2024-03-23T04:50:38;-18458.47;;;8.42;100.00
60583;BME280;46415;47.536;19.066;2024-03-23T04:53:40;-18459.03;;;8.44;100.00
60583;BME280;46415;47.536;19.066;2024-03-23T04:56:42;-18463.28;;;8.60;100.00
60583;BME280;46415;47.536;19.066;2024-03-23T04:59:44;-18462.31;;;8.56;100.00
60583;BME280;46415;47.536;19.066;2024-03-23T05:02:46;-18463.28;;;8.60;100.00
60583;BME280;46415;47.536;19.066;2024-03-23T05:05:48;-18460.69;;;8.50;100.00
60583;BME280;46415;47.536;19.066;2024-03-23T05:08:53;-18458.75;;;8.43;100.00
60583;BME280;46415;47.536;19.066;2024-03-23T05:11:56;-18457.38;;;8.38;100.00
60583;BME280;46415;47.536;19.066;2024-03-23T05:14:58;-18456.28;;;8.34;100.00
60583;BME280;46415;47.536;19.066;2024-03-23T05:18:01;-18457.94;;;8.40;100.00
60583;BME280;46415;47.536;19.066;2024-03-23T05:21:03;-18456.28;;;8.34;100.00
60583;BME280;46415;47.536;19.066;2024-03-23T05:24:05;-18457.09;;;8.37;100.00
60583;BME280;46415;47.536;19.066;2024-03-23T05:27:07;-18457.66;;;8.39;100.00
60583;BME280;46415;47.536;19.066;2024-03-23T05:30:10;-18461.50;;;8.53;100.00
60583;BME280;46415;47.536;19.066;2024-03-23T05:33:12;-18465.63;;;8.69;100.00
60583;BME280;46415;47.536;19.066;2024-03-23T05:36:14;-18467.94;;;8.77;100.00
60583;BME280;46415;47.536;19.066;2024-03-23T05:39:16;-18469.19;;;8.82;100.00
60583;BME280;46415;47.536;19.066;2024-03-23T05:42:18;-18474.66;;;9.02;100.00
60583;BME280;46415;47.536;19.066;2024-03-23T05:45:21;-18479.72;;;9.21;100.00
60583;BME280;46415;47.536;19.066;2024-03-23T05:48:25;-18484.53;;;9.38;100.00
60583;BME280;46415;47.536;19.066;2024-03-23T05:51:27;-18490.00;;;9.59;100.00
60583;BME280;46415;47.536;19.066;2024-03-23T05:54:29;-18492.75;;;9.69;100.00
60583;BME280;46415;47.536;19.066;2024-03-23T05:57:31;-18495.75;;;9.80;100.00
60583;BME280;46415;47.536;19.066;2024-03-23T06:00:34;-18497.41;;;9.86;100.00
60583;BME280;46415;47.536;19.066;2024-03-23T06:03:36;-18500.16;;;9.96;100.00
60583;BME280;46415;47.536;19.066;2024-03-23T06:06:38;-18503.97;;;10.10;100.00
60583;BME280;46415;47.536;19.066;2024-03-23T06:09:40;-18506.03;;;10.18;100.00
60583;BME280;46415;47.536;19.066;2024-03-23T06:12:42;-18509.06;;;10.29;100.00
60583;BME280;46415;47.536;19.066;2024-03-23T06:15:44;-18515.78;;;10.54;100.00
60583;BME280;46415;47.536;19.066;2024-03-23T06:18:48;-18521.78;;;10.76;100.00
60583;BME280;46415;47.536;19.066;2024-03-23T06:21:50;-18528.63;;;11.01;100.00
60583;BME280;46415;47.536;19.066;2024-03-23T06:24:52;-18536.03;;;11.29;100.00
60583;BME280;46415;47.536;19.066;2024-03-23T06:27:54;-18540.53;;;11.45;100.00
60583;BME280;46415;47.536;19.066;2024-03-23T06:30:56;-18536.56;;;11.31;100.00
60583;BME280;46415;47.536;19.066;2024-03-23T06:33:58;-18535.22;;;11.26;100.00
60583;BME280;46415;47.536;19.066;2024-03-23T06:37:00;-18536.31;;;11.30;100.00
60583;BME280;46415;47.536;19.066;2024-03-23T06:40:02;-18538.50;;;11.38;100.00
60583;BME280;46415;47.536;19.066;2024-03-23T06:43:06;-18538.63;;;11.38;100.00
60583;BME280;46415;47.536;19.066;2024-03-23T06:46:08;-18541.09;;;11.48;100.00
60583;BME280;46415;47.536;19.066;2024-03-23T06:49:10;-18548.63;;;11.75;100.00
60583;BME280;46415;47.536;19.066;2024-03-23T06:52:12;-18550.25;;;11.81;100.00
60583;BME280;46415;47.536;19.066;2024-03-23T06:55:14;-18552.84;;;11.91;100.00
60583;BME280;46415;47.536;19.066;2024-03-23T06:58:16;-18551.75;;;11.87;100.00
60583;BME280;46415;47.536;19.066;2024-03-23T07:01:18;-18551.50;;;11.86;100.00
60583;BME280;46415;47.536;19.066;2024-03-23T07:04:20;-18549.84;;;11.80;100.00
60583;BME280;46415;47.536;19.066;2024-03-23T07:07:22;-18549.56;;;11.79;100.00
60583;BME280;46415;47.536;19.066;2024-03-23T07:10:24;-18553.25;;;11.93;100.00
60583;BME280;46415;47.536;19.066;2024-03-23T07:13:26;-18557.66;;;12.09;100.00
60583;BME280;46415;47.536;19.066;2024-03-23T07:16:28;-18570.22;;;12.55;99.28
60583;BME280;46415;47.536;19.066;2024-03-23T07:19:30;-18589.34;;;13.26;95.32
60583;BME280;46415;47.536;19.066;2024-03-23T07:22:32;-18598.38;;;13.60;92.48
60583;BME280;46415;47.536;19.066;2024-03-23T07:25:34;-18602.47;;;13.75;90.87
60583;BME280;46415;47.536;19.066;2024-03-23T07:28:38;-18605.59;;;13.86;89.58
60583;BME280;46415;47.536;19.066;2024-03-23T07:31:45;-18605.47;;;13.86;90.02
60583;BME280;46415;47.536;19.066;2024-03-23T07:34:49;-18604.38;;;13.82;90.67
60583;BME280;46415;47.536;19.066;2024-03-23T07:37:51;-18598.22;;;13.59;90.94
60583;BME280;46415;47.536;19.066;2024-03-23T07:41:02;-18598.66;;;13.61;91.31
60583;BME280;46415;47.536;19.066;2024-03-23T07:44:04;-18597.28;;;13.56;91.50
60583;BME280;46415;47.536;19.066;2024-03-23T07:47:06;-18597.56;;;13.57;91.50
60583;BME280;46415;47.536;19.066;2024-03-23T07:50:09;-18607.78;;;13.95;90.53
60583;BME280;46415;47.536;19.066;2024-03-23T07:53:11;-18612.03;;;14.10;89.52
60583;BME280;46415;47.536;19.066;2024-03-23T07:56:14;-18612.56;;;14.12;88.65
60583;BME280;46415;47.536;19.066;2024-03-23T07:59:17;-18609.69;;;14.02;90.00
60583;BME280;46415;47.536;19.066;2024-03-23T08:02:20;-18616.66;;;14.27;89.75
60583;BME280;46415;47.536;19.066;2024-03-23T08:05:26;-18621.03;;;14.44;87.66
60583;BME280;46415;47.536;19.066;2024-03-23T08:08:27;-18621.19;;;14.44;88.13
60583;BME280;46415;47.536;19.066;2024-03-23T08:11:31;-18624.59;;;14.57;88.21
60583;BME280;46415;47.536;19.066;2024-03-23T08:14:33;-18627.03;;;14.66;86.64
60583;BME280;46415;47.536;19.066;2024-03-23T08:17:35;-18632.78;;;14.87;86.32
60583;BME280;46415;47.536;19.066;2024-03-23T08:20:37;-18642.59;;;15.24;84.37
60583;BME280;46415;47.536;19.066;2024-03-23T08:23:40;-18652.00;;;15.59;82.87
60583;BME280;46415;47.536;19.066;2024-03-23T08:26:41;-18658.41;;;15.82;80.70
60583;BME280;46415;47.536;19.066;2024-03-23T08:29:45;-18663.31;;;16.01;79.48
60583;BME280;46415;47.536;19.066;2024-03-23T08:32:47;-18661.41;;;15.93;80.21
60583;BME280;46415;47.536;19.066;2024-03-23T08:35:56;-18668.63;;;16.20;78.96
60583;BME280;46415;47.536;19.066;2024-03-23T08:38:58;-18677.75;;;16.54;78.07
60583;BME280;46415;47.536;19.066;2024-03-23T08:42:01;-18676.41;;;16.49;77.41
60583;BME280;46415;47.536;19.066;2024-03-23T08:45:02;-18681.72;;;16.69;76.17
60583;BME280;46415;47.536;19.066;2024-03-23T08:48:05;-18683.47;;;16.76;76.38
60583;BME280;46415;47.536;19.066;2024-03-23T08:51:08;-18682.81;;;16.73;76.14
60583;BME280;46415;47.536;19.066;2024-03-23T08:54:11;-18679.00;;;16.59;76.58
60583;BME280;46415;47.536;19.066;2024-03-23T08:57:12;-18683.91;;;16.77;75.19
60583;BME280;46415;47.536;19.066;2024-03-23T09:00:15;-18684.56;;;16.80;75.79
60583;BME280;46415;47.536;19.066;2024-03-23T09:03:16;-18682.53;;;16.72;76.18
60583;BME280;46415;47.536;19.066;2024-03-23T09:06:18;-18689.47;;;16.98;75.09
60583;BME280;46415;47.536;19.066;2024-03-23T09:09:20;-18694.50;;;17.17;74.35
60583;BME280;46415;47.536;19.066;2024-03-23T09:12:23;-18694.94;;;17.18;74.09
60583;BME280;46415;47.536;19.066;2024-03-23T09:15:24;-18708.94;;;17.70;72.51
60583;BME280;46415;47.536;19.066;2024-03-23T09:18:27;-18712.63;;;17.84;70.84
60583;BME280;46415;47.536;19.066;2024-03-23T09:21:28;-18714.94;;;17.92;70.44
60583;BME280;46415;47.536;19.066;2024-03-23T09:24:31;-18722.56;;;18.21;69.40
60583;BME280;46415;47.536;19.066;2024-03-23T09:27:33;-18722.97;;;18.22;69.46
60583;BME280;46415;47.536;19.066;2024-03-23T09:30:36;-18719.69;;;18.10;69.97
60583;BME280;46415;47.536;19.066;2024-03-23T09:33:43;-18727.84;;;18.41;69.11
60583;BME280;46415;47.536;19.066;2024-03-23T09:36:45;-18737.25;;;18.75;68.26
60583;BME280;46415;47.536;19.066;2024-03-23T09:39:46;-18745.00;;;19.04;66.36
60583;BME280;46415;47.536;19.066;2024-03-23T09:42:52;-18758.97;;;19.56;65.96
60583;BME280;46415;47.536;19.066;2024-03-23T09:45:54;-18755.84;;;19.45;64.63
60583;BME280;46415;47.536;19.066;2024-03-23T09:48:56;-18761.69;;;19.67;63.82
60583;BME280;46415;47.536;19.066;2024-03-23T09:51:58;-18754.50;;;19.40;64.18
60583;BME280;46415;47.536;19.066;2024-03-23T09:55:00;-18754.50;;;19.40;64.18
60583;BME280;46415;47.536;19.066;2024-03-23T09:58:02;-18755.31;;;19.43;65.69
60583;BME280;46415;47.536;19.066;2024-03-23T10:01:07;-18754.78;;;19.41;64.51
60583;BME280;46415;47.536;19.066;2024-03-23T10:04:09;-18757.50;;;19.51;65.58
60583;BME280;46415;47.536;19.066;2024-03-23T10:07:15;-18767.28;;;19.87;63.64
60583;BME280;46415;47.536;19.066;2024-03-23T10:10:19;-18777.84;;;20.27;62.53
60583;BME280;46415;47.536;19.066;2024-03-23T10:13:29;-18789.25;;;20.69;61.01
60583;BME280;46415;47.536;19.066;2024-03-23T10:16:31;-18795.50;;;20.93;58.09
60583;BME280;46415;47.536;19.066;2024-03-23T10:19:33;-18803.50;;;21.23;58.33
60583;BME280;46415;47.536;19.066;2024-03-23T10:22:37;-18793.72;;;20.86;54.93
60583;BME280;46415;47.536;19.066;2024-03-23T10:25:40;-18796.72;;;20.97;53.50
60583;BME280;46415;47.536;19.066;2024-03-23T10:29:01;-18800.38;;;21.11;52.00
60583;BME280;46415;47.536;19.066;2024-03-23T10:32:14;-18811.22;;;21.51;49.50
60583;BME280;46415;47.536;19.066;2024-03-23T10:35:18;-18818.41;;;21.78;48.73
60583;BME280;46415;47.536;19.066;2024-03-23T10:38:20;-18823.44;;;21.97;47.13
60583;BME280;46415;47.536;19.066;2024-03-23T10:41:22;-18826.56;;;22.09;46.32
60583;BME280;46415;47.536;19.066;2024-03-23T10:44:27;-18811.91;;;21.54;46.27
60583;BME280;46415;47.536;19.066;2024-03-23T10:47:31;-18814.09;;;21.62;45.52
60583;BME280;46415;47.536;19.066;2024-03-23T10:50:33;-18816.94;;;21.73;45.19
60583;BME280;46415;47.536;19.066;2024-03-23T10:53:36;-18811.38;;;21.52;45.83
60583;BME280;46415;47.536;19.066;2024-03-23T10:56:41;-18809.59;;;21.45;46.11
60583;BME280;46415;47.536;19.066;2024-03-23T10:59:44;-18810.41;;;21.48;46.43
60583;BME280;46415;47.536;19.066;2024-03-23T11:02:46;-18806.63;;;21.34;46.49
60583;BME280;46415;47.536;19.066;2024-03-23T11:05:48;-18812.72;;;21.57;45.51
60583;BME280;46415;47.536;19.066;2024-03-23T11:08:50;-18819.09;;;21.81;44.64
60583;BME280;46415;47.536;19.066;2024-03-23T11:11:52;-18829.13;;;22.18;44.64
60583;BME280;46415;47.536;19.066;2024-03-23T11:15:33;-18837.25;;;22.49;43.50
60583;BME280;46415;47.536;19.066;2024-03-23T11:18:28;-18830.47;;;22.23;43.10
60583;BME280;46415;47.536;19.066;2024-03-23T11:21:58;-18828.84;;;22.17;43.00
60583;BME280;46415;47.536;19.066;2024-03-23T11:25:00;-18846.31;;;22.83;41.01
60583;BME280;46415;47.536;19.066;2024-03-23T11:28:11;-18844.69;;;22.76;40.70
60583;BME280;46415;47.536;19.066;2024-03-23T11:31:14;-18848.63;;;22.91;39.52
60583;BME280;46415;47.536;19.066;2024-03-23T11:34:16;-18841.59;;;22.65;40.26
60583;BME280;46415;47.536;19.066;2024-03-23T11:37:19;-18846.19;;;22.82;40.19
60583;BME280;46415;47.536;19.066;2024-03-23T11:40:21;-18844.84;;;22.77;40.51
60583;BME280;46415;47.536;19.066;2024-03-23T11:43:23;-18847.81;;;22.88;40.50
60583;BME280;46415;47.536;19.066;2024-03-23T11:46:26;-18849.31;;;22.94;39.77
60583;BME280;46415;47.536;19.066;2024-03-23T11:49:29;-18864.59;;;23.51;38.71
60583;BME280;46415;47.536;19.066;2024-03-23T11:52:31;-18867.31;;;23.61;37.50
60583;BME280;46415;47.536;19.066;2024-03-23T11:55:51;-18859.31;;;23.31;36.63
60583;BME280;46415;47.536;19.066;2024-03-23T11:58:52;-18852.69;;;23.06;37.77
60583;BME280;46415;47.536;19.066;2024-03-23T12:01:55;-18844.97;;;22.77;38.09
60583;BME280;46415;47.536;19.066;2024-03-23T12:04:57;-18849.72;;;22.95;37.96
60583;BME280;46415;47.536;19.066;2024-03-23T12:08:22;-18856.75;;;23.22;38.23
60583;BME280;46415;47.536;19.066;2024-03-23T12:11:24;-18853.50;;;23.09;38.57
60583;BME280;46415;47.536;19.066;2024-03-23T12:14:28;-18844.44;;;22.75;38.63
60583;BME280;46415;47.536;19.066;2024-03-23T12:17:34;-18849.97;;;22.96;38.38
60583;BME280;46415;47.536;19.066;2024-03-23T12:20:37;-18838.06;;;22.52;39.11
60583;BME280;46415;47.536;19.066;2024-03-23T12:23:40;-18839.97;;;22.59;38.98
60583;BME280;46415;47.536;19.066;2024-03-23T12:26:42;-18835.63;;;22.43;38.44
60583;BME280;46415;47.536;19.066;2024-03-23T12:29:44;-18827.78;;;22.13;38.95
60583;BME280;46415;47.536;19.066;2024-03-23T12:32:48;-18831.56;;;22.27;38.39
60583;BME280;46415;47.536;19.066;2024-03-23T12:35:51;-18829.41;;;22.19;38.71
60583;BME280;46415;47.536;19.066;2024-03-23T12:38:53;-18829.25;;;22.19;38.18
60583;BME280;46415;47.536;19.066;2024-03-23T12:41:55;-18831.56;;;22.27;38.40
60583;BME280;46415;47.536;19.066;2024-03-23T12:44:57;-18835.34;;;22.42;37.63
60583;BME280;46415;47.536;19.066;2024-03-23T12:47:59;-18838.47;;;22.53;37.48
60583;BME280;46415;47.536;19.066;2024-03-23T12:51:01;-18825.47;;;22.05;38.36
60583;BME280;46415;47.536;19.066;2024-03-23T12:54:03;-18811.09;;;21.51;38.51
60583;BME280;46415;47.536;19.066;2024-03-23T12:57:05;-18806.63;;;21.34;39.00
60583;BME280;46415;47.536;19.066;2024-03-23T13:00:07;-18801.06;;;21.13;39.37
60583;BME280;46415;47.536;19.066;2024-03-23T13:03:13;-18791.28;;;20.77;40.17
60583;BME280;46415;47.536;19.066;2024-03-23T13:06:18;-18791.16;;;20.76;40.58
60583;BME280;46415;47.536;19.066;2024-03-23T13:09:20;-18789.66;;;20.71;40.93
60583;BME280;46415;47.536;19.066;2024-03-23T13:12:23;-18784.09;;;20.50;41.08
60583;BME280;46415;47.536;19.066;2024-03-23T13:15:24;-18781.13;;;20.39;41.37
60583;BME280;46415;47.536;19.066;2024-03-23T13:18:27;-18783.16;;;20.47;41.55
60583;BME280;46415;47.536;19.066;2024-03-23T13:21:29;-18779.91;;;20.34;42.30
60583;BME280;46415;47.536;19.066;2024-03-23T13:24:31;-18781.25;;;20.40;41.58
60583;BME280;46415;47.536;19.066;2024-03-23T13:27:33;-18782.59;;;20.45;41.25
60583;BME280;46415;47.536;19.066;2024-03-23T13:30:35;-18776.22;;;20.21;41.97
60583;BME280;46415;47.536;19.066;2024-03-23T13:33:36;-18778.81;;;20.30;41.88
60583;BME280;46415;47.536;19.066;2024-03-23T13:36:39;-18777.31;;;20.25;41.69
60583;BME280;46415;47.536;19.066;2024-03-23T13:39:40;-18777.03;;;20.24;41.45
60583;BME280;46415;47.536;19.066;2024-03-23T13:42:44;-18774.72;;;20.15;41.72
60583;BME280;46415;47.536;19.066;2024-03-23T13:45:51;-18772.16;;;20.06;41.61
60583;BME280;46415;47.536;19.066;2024-03-23T13:48:54;-18773.91;;;20.12;41.57
60583;BME280;46415;47.536;19.066;2024-03-23T13:51:57;-18769.97;;;19.97;41.83
60583;BME280;46415;47.536;19.066;2024-03-23T13:54:59;-18771.63;;;20.04;41.78
60583;BME280;46415;47.536;19.066;2024-03-23T13:58:01;-18772.97;;;20.09;41.96
60583;BME280;46415;47.536;19.066;2024-03-23T14:01:03;-18771.88;;;20.05;41.20
60583;BME280;46415;47.536;19.066;2024-03-23T14:04:05;-18772.84;;;20.08;41.57
60583;BME280;46415;47.536;19.066;2024-03-23T14:07:07;-18773.50;;;20.11;41.52
60583;BME280;46415;47.536;19.066;2024-03-23T14:10:10;-18772.97;;;20.09;41.55
60583;BME280;46415;47.536;19.066;2024-03-23T14:13:12;-18772.28;;;20.06;41.81
60583;BME280;46415;47.536;19.066;2024-03-23T14:16:14;-18771.75;;;20.04;41.73
60583;BME280;46415;47.536;19.066;2024-03-23T14:19:18;-18768.09;;;19.90;42.41
60583;BME280;46415;47.536;19.066;2024-03-23T14:22:21;-18767.81;;;19.89;42.74
60583;BME280;46415;47.536;19.066;2024-03-23T14:25:24;-18766.84;;;19.86;42.67
60583;BME280;46415;47.536;19.066;2024-03-23T14:28:30;-18764.56;;;19.77;42.44
60583;BME280;46415;47.536;19.066;2024-03-23T14:31:32;-18764.69;;;19.78;42.89
60583;BME280;46415;47.536;19.066;2024-03-23T14:34:33;-18763.19;;;19.72;42.96
60583;BME280;46415;47.536;19.066;2024-03-23T14:37:36;-18762.50;;;19.70;42.34
60583;BME280;46415;47.536;19.066;2024-03-23T14:40:41;-18761.97;;;19.68;42.66
60583;BME280;46415;47.536;19.066;2024-03-23T14:43:44;-18762.66;;;19.70;42.70
60583;BME280;46415;47.536;19.066;2024-03-23T14:46:48;-18759.94;;;19.60;42.71
60583;BME280;46415;47.536;19.066;2024-03-23T14:49:50;-18760.63;;;19.63;42.60
60583;BME280;46415;47.536;19.066;2024-03-23T14:52:53;-18760.75;;;19.63;43.30
60583;BME280;46415;47.536;19.066;2024-03-23T14:55:57;-18759.66;;;19.59;42.86
60583;BME280;46415;47.536;19.066;2024-03-23T14:59:00;-18758.56;;;19.55;42.51
60583;BME280;46415;47.536;19.066;2024-03-23T15:02:02;-18757.22;;;19.50;43.06
60583;BME280;46415;47.536;19.066;2024-03-23T15:05:05;-18754.22;;;19.39;43.35
60583;BME280;46415;47.536;19.066;2024-03-23T15:08:09;-18757.22;;;19.50;43.21
60583;BME280;46415;47.536;19.066;2024-03-23T15:11:11;-18757.63;;;19.51;43.38
60583;BME280;46415;47.536;19.066;2024-03-23T15:14:13;-18756.69;;;19.48;44.17
60583;BME280;46415;47.536;19.066;2024-03-23T15:17:15;-18757.50;;;19.51;44.26
60583;BME280;46415;47.536;19.066;2024-03-23T15:20:17;-18753.41;;;19.36;44.78
60583;BME280;46415;47.536;19.066;2024-03-23T15:23:20;-18752.59;;;19.33;45.53
60583;BME280;46415;47.536;19.066;2024-03-23T15:26:22;-18752.88;;;19.34;45.51
60583;BME280;46415;47.536;19.066;2024-03-23T15:29:27;-18751.38;;;19.28;45.88
60583;BME280;46415;47.536;19.066;2024-03-23T15:32:29;-18750.81;;;19.26;45.78
60583;BME280;46415;47.536;19.066;2024-03-23T15:35:31;-18751.78;;;19.30;45.73
60583;BME280;46415;47.536;19.066;2024-03-23T15:38:33;-18753.13;;;19.35;45.42
60583;BME280;46415;47.536;19.066;2024-03-23T15:41:36;-18748.25;;;19.16;46.00
60583;BME280;46415;47.536;19.066;2024-03-23T15:44:38;-18747.84;;;19.15;46.28
60583;BME280;46415;47.536;19.066;2024-03-23T15:47:40;-18745.53;;;19.06;46.47
60583;BME280;46415;47.536;19.066;2024-03-23T15:50:50;-18746.22;;;19.09;46.63
60583;BME280;46415;47.536;19.066;2024-03-23T15:53:54;-18744.72;;;19.03;46.92
60583;BME280;46415;47.536;19.066;2024-03-23T15:56:58;-18740.78;;;18.89;47.44
60583;BME280;46415;47.536;19.066;2024-03-23T16:00:01;-18740.91;;;18.89;47.32
60583;BME280;46415;47.536;19.066;2024-03-23T16:03:13;-18740.09;;;18.86;46.89
60583;BME280;46415;47.536;19.066;2024-03-23T16:06:15;-18741.72;;;18.92;46.07
60583;BME280;46415;47.536;19.066;2024-03-23T16:09:17;-18744.56;;;19.03;46.08
60583;BME280;46415;47.536;19.066;2024-03-23T16:12:20;-18762.09;;;19.68;44.16
60583;BME280;46415;47.536;19.066;2024-03-23T16:15:22;-18763.31;;;19.73;43.44
60583;BME280;46415;47.536;19.066;2024-03-23T16:18:25;-18758.56;;;19.55;43.54
60583;BME280;46415;47.536;19.066;2024-03-23T16:21:28;-18752.88;;;19.34;44.05
60583;BME280;46415;47.536;19.066;2024-03-23T16:24:30;-18753.53;;;19.36;44.16
60583;BME280;46415;47.536;19.066;2024-03-23T16:27:32;-18745.94;;;19.08;44.61
60583;BME280;46415;47.536;19.066;2024-03-23T16:30:34;-18740.09;;;18.86;45.39
60583;BME280;46415;47.536;19.066;2024-03-23T16:33:37;-18738.87;;;18.82;45.37
60583;BME280;46415;47.536;19.066;2024-03-23T16:36:39;-18735.06;;;18.67;46.03
60583;BME280;46415;47.536;19.066;2024-03-23T16:39:41;-18730.03;;;18.49;46.30